sensor_id;sensor_type;location;lat;lon;timestamp;P1;durP1;ratioP1;P2;durP2;ratioP2
56720;SDS011;53183;47.412;18.884;2022-12-18T00:03:54;36.72;;;14.87;;
56720;SDS011;53183;47.412;18.884;2022-12-18T00:06:22;41.15;;;14.35;;
56720;SDS011;53183;47.412;18.884;2022-12-18T00:08:51;36.55;;;15.32;;
56720;SDS011;53183;47.412;18.884;2022-12-18T00:11:20;36.58;;;13.30;;
56720;SDS011;53183;47.412;18.884;2022-12-18T00:13:48;37.85;;;14.40;;
56720;SDS011;53183;47.412;18.884;2022-12-18T00:16:17;37.00;;;13.95;;
56720;SDS011;53183;47.412;18.884;2022-12-18T00:18:48;40.60;;;16.58;;
56720;SDS011;53183;47.412;18.884;2022-12-18T00:21:16;43.70;;;15.27;;
56720;SDS011;53183;47.412;18.884;2022-12-18T00:23:45;40.35;;;17.02;;
56720;SDS011;53183;47.412;18.884;2022-12-18T00:26:14;45.83;;;14.75;;
56720;SDS011;53183;47.412;18.884;2022-12-18T00:28:44;30.05;;;11.12;;
56720;SDS011;53183;47.412;18.884;2022-12-18T00:31:13;47.75;;;16.12;;
56720;SDS011;53183;47.412;18.884;2022-12-18T00:33:42;37.97;;;14.30;;
56720;SDS011;53183;47.412;18.884;2022-12-18T00:36:11;41.90;;;16.73;;
56720;SDS011;53183;47.412;18.884;2022-12-18T00:38:46;42.30;;;13.68;;
56720;SDS011;53183;47.412;18.884;2022-12-18T00:41:17;43.15;;;13.93;;
56720;SDS011;53183;47.412;18.884;2022-12-18T00:44:04;36.35;;;13.77;;
56720;SDS011;53183;47.412;18.884;2022-12-18T00:46:32;40.78;;;14.07;;
56720;SDS011;53183;47.412;18.884;2022-12-18T00:49:00;34.35;;;13.35;;
56720;SDS011;53183;47.412;18.884;2022-12-18T00:51:27;38.40;;;12.43;;
56720;SDS011;53183;47.412;18.884;2022-12-18T00:53:55;36.00;;;14.13;;
56720;SDS011;53183;47.412;18.884;2022-12-18T00:56:22;45.80;;;14.77;;
56720;SDS011;53183;47.412;18.884;2022-12-18T00:58:51;48.92;;;15.00;;
56720;SDS011;53183;47.412;18.884;2022-12-18T01:01:18;29.40;;;12.07;;
56720;SDS011;53183;47.412;18.884;2022-12-18T01:03:46;42.58;;;15.52;;
56720;SDS011;53183;47.412;18.884;2022-12-18T01:06:15;47.95;;;14.82;;
56720;SDS011;53183;47.412;18.884;2022-12-18T01:08:43;41.67;;;15.15;;
56720;SDS011;53183;47.412;18.884;2022-12-18T01:11:15;41.88;;;14.00;;
56720;SDS011;53183;47.412;18.884;2022-12-18T01:13:44;38.60;;;15.40;;
56720;SDS011;53183;47.412;18.884;2022-12-18T01:16:13;38.92;;;14.18;;
56720;SDS011;53183;47.412;18.884;2022-12-18T01:18:41;49.20;;;15.43;;
56720;SDS011;53183;47.412;18.884;2022-12-18T01:21:10;35.15;;;12.07;;
56720;SDS011;53183;47.412;18.884;2022-12-18T01:23:39;34.83;;;14.07;;
56720;SDS011;53183;47.412;18.884;2022-12-18T01:26:12;29.33;;;12.25;;
56720;SDS011;53183;47.412;18.884;2022-12-18T01:28:42;40.60;;;12.70;;
56720;SDS011;53183;47.412;18.884;2022-12-18T01:31:11;30.33;;;13.05;;
56720;SDS011;53183;47.412;18.884;2022-12-18T01:33:39;35.28;;;13.95;;
56720;SDS011;53183;47.412;18.884;2022-12-18T01:36:07;34.10;;;13.40;;
56720;SDS011;53183;47.412;18.884;2022-12-18T01:38:34;30.10;;;12.60;;
56720;SDS011;53183;47.412;18.884;2022-12-18T01:41:02;33.47;;;13.60;;
56720;SDS011;53183;47.412;18.884;2022-12-18T01:46:18;32.45;;;14.13;;
56720;SDS011;53183;47.412;18.884;2022-12-18T01:48:48;43.97;;;14.35;;
56720;SDS011;53183;47.412;18.884;2022-12-18T01:51:17;44.35;;;14.63;;
56720;SDS011;53183;47.412;18.884;2022-12-18T01:53:45;38.28;;;14.70;;
56720;SDS011;53183;47.412;18.884;2022-12-18T01:56:16;40.85;;;15.48;;
56720;SDS011;53183;47.412;18.884;2022-12-18T01:59:01;40.95;;;14.98;;
56720;SDS011;53183;47.412;18.884;2022-12-18T02:01:31;31.77;;;13.57;;
56720;SDS011;53183;47.412;18.884;2022-12-18T02:15:36;39.60;;;16.02;;
56720;SDS011;53183;47.412;18.884;2022-12-18T02:20:47;35.63;;;15.02;;
56720;SDS011;53183;47.412;18.884;2022-12-18T02:26:30;42.83;;;15.80;;
56720;SDS011;53183;47.412;18.884;2022-12-18T02:29:12;36.38;;;15.50;;
56720;SDS011;53183;47.412;18.884;2022-12-18T02:31:50;45.35;;;14.75;;
56720;SDS011;53183;47.412;18.884;2022-12-18T02:34:21;44.60;;;15.95;;
56720;SDS011;53183;47.412;18.884;2022-12-18T02:36:53;38.88;;;15.15;;
56720;SDS011;53183;47.412;18.884;2022-12-18T02:39:26;41.33;;;16.27;;
56720;SDS011;53183;47.412;18.884;2022-12-18T02:41:56;43.83;;;13.57;;
56720;SDS011;53183;47.412;18.884;2022-12-18T02:44:25;39.33;;;15.35;;
56720;SDS011;53183;47.412;18.884;2022-12-18T02:46:53;45.88;;;14.95;;
56720;SDS011;53183;47.412;18.884;2022-12-18T02:54:55;36.65;;;12.90;;
56720;SDS011;53183;47.412;18.884;2022-12-18T03:00:04;39.53;;;13.75;;
56720;SDS011;53183;47.412;18.884;2022-12-18T03:02:52;37.97;;;13.60;;
56720;SDS011;53183;47.412;18.884;2022-12-18T03:05:25;39.53;;;14.90;;
56720;SDS011;53183;47.412;18.884;2022-12-18T03:08:09;42.22;;;14.25;;
56720;SDS011;53183;47.412;18.884;2022-12-18T03:10:56;39.10;;;13.38;;
56720;SDS011;53183;47.412;18.884;2022-12-18T03:13:32;40.75;;;15.38;;
56720;SDS011;53183;47.412;18.884;2022-12-18T03:16:05;36.78;;;14.85;;
56720;SDS011;53183;47.412;18.884;2022-12-18T03:18:47;40.80;;;15.05;;
56720;SDS011;53183;47.412;18.884;2022-12-18T03:21:19;31.73;;;13.20;;
56720;SDS011;53183;47.412;18.884;2022-12-18T03:23:50;43.72;;;15.38;;
56720;SDS011;53183;47.412;18.884;2022-12-18T03:26:21;41.85;;;15.77;;
56720;SDS011;53183;47.412;18.884;2022-12-18T03:28:53;40.78;;;15.93;;
56720;SDS011;53183;47.412;18.884;2022-12-18T03:31:28;43.67;;;16.17;;
56720;SDS011;53183;47.412;18.884;2022-12-18T03:34:05;48.70;;;14.18;;
56720;SDS011;53183;47.412;18.884;2022-12-18T03:36:39;41.88;;;15.55;;
56720;SDS011;53183;47.412;18.884;2022-12-18T03:39:07;45.45;;;15.85;;
56720;SDS011;53183;47.412;18.884;2022-12-18T03:47:43;42.92;;;13.77;;
56720;SDS011;53183;47.412;18.884;2022-12-18T03:56:13;39.45;;;13.80;;
56720;SDS011;53183;47.412;18.884;2022-12-18T03:58:43;41.97;;;13.77;;
56720;SDS011;53183;47.412;18.884;2022-12-18T04:01:15;35.03;;;13.77;;
56720;SDS011;53183;47.412;18.884;2022-12-18T04:03:44;39.28;;;13.73;;
56720;SDS011;53183;47.412;18.884;2022-12-18T04:06:16;44.65;;;14.98;;
56720;SDS011;53183;47.412;18.884;2022-12-18T04:08:45;38.45;;;14.38;;
56720;SDS011;53183;47.412;18.884;2022-12-18T04:11:14;41.37;;;13.50;;
56720;SDS011;53183;47.412;18.884;2022-12-18T04:13:42;37.28;;;12.88;;
56720;SDS011;53183;47.412;18.884;2022-12-18T04:16:12;39.17;;;14.75;;
56720;SDS011;53183;47.412;18.884;2022-12-18T04:18:39;41.37;;;15.60;;
56720;SDS011;53183;47.412;18.884;2022-12-18T04:21:07;42.15;;;14.32;;
56720;SDS011;53183;47.412;18.884;2022-12-18T04:23:35;39.67;;;13.75;;
56720;SDS011;53183;47.412;18.884;2022-12-18T04:26:03;37.90;;;12.23;;
56720;SDS011;53183;47.412;18.884;2022-12-18T04:28:35;32.00;;;12.98;;
56720;SDS011;53183;47.412;18.884;2022-12-18T04:31:02;32.90;;;12.48;;
56720;SDS011;53183;47.412;18.884;2022-12-18T04:33:30;38.25;;;14.02;;
56720;SDS011;53183;47.412;18.884;2022-12-18T04:35:57;32.47;;;13.60;;
56720;SDS011;53183;47.412;18.884;2022-12-18T04:38:25;39.03;;;13.90;;
56720;SDS011;53183;47.412;18.884;2022-12-18T04:40:55;37.15;;;14.15;;
56720;SDS011;53183;47.412;18.884;2022-12-18T04:43:23;34.13;;;13.30;;
56720;SDS011;53183;47.412;18.884;2022-12-18T04:45:50;43.90;;;13.95;;
56720;SDS011;53183;47.412;18.884;2022-12-18T04:48:17;34.33;;;12.98;;
56720;SDS011;53183;47.412;18.884;2022-12-18T04:50:44;36.83;;;14.05;;
56720;SDS011;53183;47.412;18.884;2022-12-18T04:53:13;34.70;;;13.00;;
56720;SDS011;53183;47.412;18.884;2022-12-18T04:55:40;37.05;;;12.82;;
56720;SDS011;53183;47.412;18.884;2022-12-18T04:58:07;36.05;;;12.13;;
56720;SDS011;53183;47.412;18.884;2022-12-18T05:00:35;31.00;;;13.15;;
56720;SDS011;53183;47.412;18.884;2022-12-18T05:03:02;31.73;;;13.82;;
56720;SDS011;53183;47.412;18.884;2022-12-18T05:05:29;33.63;;;13.20;;
56720;SDS011;53183;47.412;18.884;2022-12-18T05:07:57;38.78;;;14.05;;
56720;SDS011;53183;47.412;18.884;2022-12-18T05:10:24;39.38;;;14.38;;
56720;SDS011;53183;47.412;18.884;2022-12-18T05:12:51;39.38;;;15.13;;
56720;SDS011;53183;47.412;18.884;2022-12-18T05:15:30;33.05;;;12.05;;
56720;SDS011;53183;47.412;18.884;2022-12-18T05:17:58;42.35;;;16.27;;
56720;SDS011;53183;47.412;18.884;2022-12-18T05:20:27;45.08;;;13.43;;
56720;SDS011;53183;47.412;18.884;2022-12-18T05:22:55;41.72;;;14.75;;
56720;SDS011;53183;47.412;18.884;2022-12-18T05:25:22;40.08;;;14.02;;
56720;SDS011;53183;47.412;18.884;2022-12-18T05:27:50;42.35;;;15.75;;
56720;SDS011;53183;47.412;18.884;2022-12-18T05:30:17;32.80;;;13.70;;
56720;SDS011;53183;47.412;18.884;2022-12-18T05:32:44;42.95;;;15.18;;
56720;SDS011;53183;47.412;18.884;2022-12-18T05:35:11;40.10;;;14.68;;
56720;SDS011;53183;47.412;18.884;2022-12-18T05:37:38;38.25;;;14.20;;
56720;SDS011;53183;47.412;18.884;2022-12-18T05:40:09;48.75;;;14.57;;
56720;SDS011;53183;47.412;18.884;2022-12-18T05:42:37;40.63;;;13.93;;
56720;SDS011;53183;47.412;18.884;2022-12-18T05:45:04;38.90;;;14.82;;
56720;SDS011;53183;47.412;18.884;2022-12-18T05:47:32;40.63;;;14.93;;
56720;SDS011;53183;47.412;18.884;2022-12-18T05:49:59;33.38;;;13.35;;
56720;SDS011;53183;47.412;18.884;2022-12-18T05:52:26;42.22;;;16.25;;
56720;SDS011;53183;47.412;18.884;2022-12-18T05:54:53;40.35;;;14.27;;
56720;SDS011;53183;47.412;18.884;2022-12-18T05:57:21;39.20;;;14.82;;
56720;SDS011;53183;47.412;18.884;2022-12-18T05:59:48;40.85;;;15.75;;
56720;SDS011;53183;47.412;18.884;2022-12-18T06:02:15;44.40;;;14.10;;
56720;SDS011;53183;47.412;18.884;2022-12-18T06:04:42;45.63;;;15.25;;
56720;SDS011;53183;47.412;18.884;2022-12-18T06:07:09;45.58;;;14.35;;
56720;SDS011;53183;47.412;18.884;2022-12-18T06:09:37;53.15;;;17.95;;
56720;SDS011;53183;47.412;18.884;2022-12-18T06:12:04;49.53;;;17.55;;
56720;SDS011;53183;47.412;18.884;2022-12-18T06:14:31;51.88;;;17.98;;
56720;SDS011;53183;47.412;18.884;2022-12-18T06:16:59;43.90;;;16.00;;
56720;SDS011;53183;47.412;18.884;2022-12-18T06:19:26;47.92;;;16.98;;
56720;SDS011;53183;47.412;18.884;2022-12-18T06:21:53;45.92;;;16.42;;
56720;SDS011;53183;47.412;18.884;2022-12-18T06:24:20;42.92;;;15.82;;
56720;SDS011;53183;47.412;18.884;2022-12-18T06:26:47;37.22;;;14.02;;
56720;SDS011;53183;47.412;18.884;2022-12-18T06:29:14;42.50;;;15.05;;
56720;SDS011;53183;47.412;18.884;2022-12-18T06:31:41;40.42;;;14.60;;
56720;SDS011;53183;47.412;18.884;2022-12-18T06:34:09;44.22;;;15.60;;
56720;SDS011;53183;47.412;18.884;2022-12-18T06:36:36;43.50;;;16.52;;
56720;SDS011;53183;47.412;18.884;2022-12-18T06:39:03;47.75;;;16.42;;
56720;SDS011;53183;47.412;18.884;2022-12-18T06:41:31;48.65;;;15.50;;
56720;SDS011;53183;47.412;18.884;2022-12-18T06:43:58;42.40;;;14.90;;
56720;SDS011;53183;47.412;18.884;2022-12-18T06:46:26;37.40;;;14.55;;
56720;SDS011;53183;47.412;18.884;2022-12-18T06:48:53;39.28;;;15.10;;
56720;SDS011;53183;47.412;18.884;2022-12-18T06:51:21;47.10;;;15.45;;
56720;SDS011;53183;47.412;18.884;2022-12-18T06:53:50;39.30;;;16.10;;
56720;SDS011;53183;47.412;18.884;2022-12-18T06:56:17;46.45;;;16.15;;
56720;SDS011;53183;47.412;18.884;2022-12-18T06:58:44;37.72;;;14.57;;
56720;SDS011;53183;47.412;18.884;2022-12-18T07:01:12;37.10;;;14.32;;
56720;SDS011;53183;47.412;18.884;2022-12-18T07:03:40;44.20;;;16.23;;
56720;SDS011;53183;47.412;18.884;2022-12-18T07:06:15;40.17;;;14.55;;
56720;SDS011;53183;47.412;18.884;2022-12-18T07:08:45;34.78;;;14.52;;
56720;SDS011;53183;47.412;18.884;2022-12-18T07:11:13;46.25;;;16.30;;
56720;SDS011;53183;47.412;18.884;2022-12-18T07:13:41;46.08;;;15.57;;
56720;SDS011;53183;47.412;18.884;2022-12-18T07:16:10;43.58;;;15.27;;
56720;SDS011;53183;47.412;18.884;2022-12-18T07:18:48;47.83;;;16.15;;
56720;SDS011;53183;47.412;18.884;2022-12-18T07:21:16;40.95;;;14.45;;
56720;SDS011;53183;47.412;18.884;2022-12-18T07:23:45;38.28;;;15.07;;
56720;SDS011;53183;47.412;18.884;2022-12-18T07:26:16;41.10;;;17.37;;
56720;SDS011;53183;47.412;18.884;2022-12-18T07:28:45;46.05;;;16.25;;
56720;SDS011;53183;47.412;18.884;2022-12-18T07:31:16;45.85;;;16.48;;
56720;SDS011;53183;47.412;18.884;2022-12-18T07:33:47;42.80;;;16.77;;
56720;SDS011;53183;47.412;18.884;2022-12-18T07:36:15;33.25;;;14.18;;
56720;SDS011;53183;47.412;18.884;2022-12-18T07:38:42;41.42;;;16.23;;
56720;SDS011;53183;47.412;18.884;2022-12-18T07:41:10;48.03;;;15.70;;
56720;SDS011;53183;47.412;18.884;2022-12-18T07:43:39;47.58;;;17.08;;
56720;SDS011;53183;47.412;18.884;2022-12-18T07:46:08;45.80;;;17.83;;
56720;SDS011;53183;47.412;18.884;2022-12-18T07:48:36;38.35;;;15.60;;
56720;SDS011;53183;47.412;18.884;2022-12-18T07:51:04;34.40;;;14.13;;
56720;SDS011;53183;47.412;18.884;2022-12-18T07:53:33;41.05;;;15.27;;
56720;SDS011;53183;47.412;18.884;2022-12-18T07:56:03;38.35;;;15.60;;
56720;SDS011;53183;47.412;18.884;2022-12-18T07:58:52;45.47;;;16.80;;
56720;SDS011;53183;47.412;18.884;2022-12-18T08:01:20;44.58;;;17.27;;
56720;SDS011;53183;47.412;18.884;2022-12-18T08:03:48;43.00;;;16.75;;
56720;SDS011;53183;47.412;18.884;2022-12-18T08:06:18;40.33;;;16.00;;
56720;SDS011;53183;47.412;18.884;2022-12-18T08:08:51;42.72;;;16.37;;
56720;SDS011;53183;47.412;18.884;2022-12-18T08:11:19;42.00;;;16.05;;
56720;SDS011;53183;47.412;18.884;2022-12-18T08:13:47;40.90;;;15.40;;
56720;SDS011;53183;47.412;18.884;2022-12-18T08:16:15;51.10;;;19.20;;
56720;SDS011;53183;47.412;18.884;2022-12-18T08:18:43;49.38;;;20.17;;
56720;SDS011;53183;47.412;18.884;2022-12-18T08:21:11;48.85;;;18.35;;
56720;SDS011;53183;47.412;18.884;2022-12-18T08:23:39;56.47;;;19.83;;
56720;SDS011;53183;47.412;18.884;2022-12-18T08:26:09;57.20;;;17.20;;
56720;SDS011;53183;47.412;18.884;2022-12-18T08:28:37;46.13;;;17.37;;
56720;SDS011;53183;47.412;18.884;2022-12-18T08:31:05;51.63;;;18.95;;
56720;SDS011;53183;47.412;18.884;2022-12-18T08:33:32;44.85;;;16.87;;
56720;SDS011;53183;47.412;18.884;2022-12-18T08:36:00;40.17;;;16.30;;
56720;SDS011;53183;47.412;18.884;2022-12-18T08:38:28;42.33;;;15.75;;
56720;SDS011;53183;47.412;18.884;2022-12-18T08:40:59;39.83;;;14.40;;
56720;SDS011;53183;47.412;18.884;2022-12-18T08:43:27;50.22;;;17.42;;
56720;SDS011;53183;47.412;18.884;2022-12-18T08:46:17;44.20;;;15.70;;
56720;SDS011;53183;47.412;18.884;2022-12-18T08:48:45;43.40;;;16.95;;
56720;SDS011;53183;47.412;18.884;2022-12-18T08:51:13;45.40;;;16.45;;
56720;SDS011;53183;47.412;18.884;2022-12-18T08:53:43;36.08;;;15.65;;
56720;SDS011;53183;47.412;18.884;2022-12-18T08:56:11;41.05;;;15.57;;
56720;SDS011;53183;47.412;18.884;2022-12-18T08:58:39;43.05;;;17.55;;
56720;SDS011;53183;47.412;18.884;2022-12-18T09:01:08;40.67;;;16.10;;
56720;SDS011;53183;47.412;18.884;2022-12-18T09:03:36;37.00;;;15.90;;
56720;SDS011;53183;47.412;18.884;2022-12-18T09:06:05;45.15;;;15.93;;
56720;SDS011;53183;47.412;18.884;2022-12-18T09:08:33;43.30;;;16.33;;
56720;SDS011;53183;47.412;18.884;2022-12-18T09:11:11;40.22;;;15.93;;
56720;SDS011;53183;47.412;18.884;2022-12-18T09:13:40;41.65;;;14.25;;
56720;SDS011;53183;47.412;18.884;2022-12-18T09:16:08;43.65;;;15.65;;
56720;SDS011;53183;47.412;18.884;2022-12-18T09:18:36;35.97;;;14.32;;
56720;SDS011;53183;47.412;18.884;2022-12-18T09:21:07;36.15;;;15.00;;
56720;SDS011;53183;47.412;18.884;2022-12-18T09:23:39;30.15;;;12.75;;
56720;SDS011;53183;47.412;18.884;2022-12-18T09:26:06;37.42;;;14.68;;
56720;SDS011;53183;47.412;18.884;2022-12-18T09:28:34;49.95;;;15.95;;
56720;SDS011;53183;47.412;18.884;2022-12-18T09:31:05;37.05;;;14.40;;
56720;SDS011;53183;47.412;18.884;2022-12-18T09:33:35;38.35;;;14.02;;
56720;SDS011;53183;47.412;18.884;2022-12-18T09:36:03;40.88;;;15.85;;
56720;SDS011;53183;47.412;18.884;2022-12-18T09:38:33;40.75;;;14.95;;
56720;SDS011;53183;47.412;18.884;2022-12-18T09:41:05;32.35;;;12.73;;
56720;SDS011;53183;47.412;18.884;2022-12-18T09:43:45;39.53;;;14.35;;
56720;SDS011;53183;47.412;18.884;2022-12-18T09:46:23;34.58;;;13.43;;
56720;SDS011;53183;47.412;18.884;2022-12-18T09:48:54;34.08;;;14.07;;
56720;SDS011;53183;47.412;18.884;2022-12-18T09:51:27;34.08;;;12.85;;
56720;SDS011;53183;47.412;18.884;2022-12-18T09:53:59;36.22;;;12.37;;
56720;SDS011;53183;47.412;18.884;2022-12-18T09:56:32;28.38;;;10.82;;
56720;SDS011;53183;47.412;18.884;2022-12-18T09:59:05;39.22;;;13.20;;
56720;SDS011;53183;47.412;18.884;2022-12-18T10:01:40;28.67;;;11.90;;
56720;SDS011;53183;47.412;18.884;2022-12-18T10:04:11;34.05;;;13.15;;
56720;SDS011;53183;47.412;18.884;2022-12-18T10:06:45;36.10;;;13.75;;
56720;SDS011;53183;47.412;18.884;2022-12-18T10:12:27;38.25;;;13.43;;
56720;SDS011;53183;47.412;18.884;2022-12-18T10:15:07;26.77;;;11.73;;
56720;SDS011;53183;47.412;18.884;2022-12-18T10:20:27;30.02;;;11.68;;
56720;SDS011;53183;47.412;18.884;2022-12-18T10:23:18;30.17;;;12.57;;
56720;SDS011;53183;47.412;18.884;2022-12-18T10:26:04;37.53;;;15.60;;
56720;SDS011;53183;47.412;18.884;2022-12-18T10:28:35;33.67;;;14.10;;
56720;SDS011;53183;47.412;18.884;2022-12-18T10:31:06;37.08;;;15.18;;
56720;SDS011;53183;47.412;18.884;2022-12-18T10:33:43;45.08;;;16.85;;
56720;SDS011;53183;47.412;18.884;2022-12-18T10:36:11;40.15;;;16.05;;
56720;SDS011;53183;47.412;18.884;2022-12-18T10:38:38;42.22;;;15.55;;
56720;SDS011;53183;47.412;18.884;2022-12-18T10:44:14;33.55;;;16.12;;
56720;SDS011;53183;47.412;18.884;2022-12-18T10:46:48;37.42;;;14.68;;
56720;SDS011;53183;47.412;18.884;2022-12-18T10:49:18;32.63;;;14.55;;
56720;SDS011;53183;47.412;18.884;2022-12-18T10:51:47;35.65;;;14.50;;
56720;SDS011;53183;47.412;18.884;2022-12-18T10:56:42;33.97;;;14.05;;
56720;SDS011;53183;47.412;18.884;2022-12-18T10:59:13;32.83;;;14.18;;
56720;SDS011;53183;47.412;18.884;2022-12-18T11:01:57;37.25;;;12.93;;
56720;SDS011;53183;47.412;18.884;2022-12-18T11:04:31;25.65;;;11.80;;
56720;SDS011;53183;47.412;18.884;2022-12-18T11:07:03;31.23;;;12.40;;
56720;SDS011;53183;47.412;18.884;2022-12-18T11:09:36;34.42;;;12.93;;
56720;SDS011;53183;47.412;18.884;2022-12-18T11:12:17;31.42;;;12.40;;
56720;SDS011;53183;47.412;18.884;2022-12-18T11:14:53;30.55;;;12.43;;
56720;SDS011;53183;47.412;18.884;2022-12-18T11:20:03;29.23;;;11.12;;
56720;SDS011;53183;47.412;18.884;2022-12-18T11:22:36;28.02;;;11.52;;
56720;SDS011;53183;47.412;18.884;2022-12-18T11:27:59;38.50;;;12.13;;
56720;SDS011;53183;47.412;18.884;2022-12-18T11:30:32;28.08;;;10.77;;
56720;SDS011;53183;47.412;18.884;2022-12-18T11:35:49;25.92;;;10.90;;
56720;SDS011;53183;47.412;18.884;2022-12-18T11:38:32;36.20;;;12.55;;
56720;SDS011;53183;47.412;18.884;2022-12-18T11:41:07;33.45;;;12.35;;
56720;SDS011;53183;47.412;18.884;2022-12-18T11:44:24;30.02;;;10.95;;
56720;SDS011;53183;47.412;18.884;2022-12-18T11:46:56;29.45;;;12.32;;
56720;SDS011;53183;47.412;18.884;2022-12-18T11:49:31;26.67;;;12.05;;
56720;SDS011;53183;47.412;18.884;2022-12-18T11:52:14;32.63;;;11.93;;
56720;SDS011;53183;47.412;18.884;2022-12-18T11:54:52;31.67;;;11.07;;
56720;SDS011;53183;47.412;18.884;2022-12-18T12:00:26;25.88;;;10.48;;
56720;SDS011;53183;47.412;18.884;2022-12-18T12:28:23;30.98;;;12.05;;
56720;SDS011;53183;47.412;18.884;2022-12-18T12:34:23;30.90;;;10.75;;
56720;SDS011;53183;47.412;18.884;2022-12-18T12:39:37;24.48;;;12.40;;
56720;SDS011;53183;47.412;18.884;2022-12-18T12:42:23;27.87;;;11.48;;
56720;SDS011;53183;47.412;18.884;2022-12-18T12:45:30;29.33;;;11.52;;
56720;SDS011;53183;47.412;18.884;2022-12-18T12:51:20;25.80;;;11.00;;
56720;SDS011;53183;47.412;18.884;2022-12-18T12:53:50;32.67;;;13.50;;
56720;SDS011;53183;47.412;18.884;2022-12-18T12:56:20;28.02;;;12.10;;
56720;SDS011;53183;47.412;18.884;2022-12-18T12:58:53;32.17;;;13.02;;
56720;SDS011;53183;47.412;18.884;2022-12-18T13:07:10;28.45;;;13.85;;
56720;SDS011;53183;47.412;18.884;2022-12-18T13:12:52;32.08;;;12.50;;
56720;SDS011;53183;47.412;18.884;2022-12-18T13:15:39;30.95;;;12.52;;
56720;SDS011;53183;47.412;18.884;2022-12-18T13:18:13;25.15;;;10.95;;
56720;SDS011;53183;47.412;18.884;2022-12-18T13:23:33;29.27;;;11.60;;
56720;SDS011;53183;47.412;18.884;2022-12-18T13:31:14;34.50;;;13.20;;
56720;SDS011;53183;47.412;18.884;2022-12-18T13:36:56;30.27;;;11.75;;
56720;SDS011;53183;47.412;18.884;2022-12-18T13:39:44;31.83;;;11.80;;
56720;SDS011;53183;47.412;18.884;2022-12-18T13:44:58;31.42;;;13.40;;
56720;SDS011;53183;47.412;18.884;2022-12-18T13:47:33;33.88;;;13.68;;
56720;SDS011;53183;47.412;18.884;2022-12-18T13:50:25;35.15;;;12.30;;
56720;SDS011;53183;47.412;18.884;2022-12-18T13:53:02;35.45;;;14.07;;
56720;SDS011;53183;47.412;18.884;2022-12-18T13:55:31;46.58;;;14.52;;
56720;SDS011;53183;47.412;18.884;2022-12-18T13:58:05;37.00;;;15.05;;
56720;SDS011;53183;47.412;18.884;2022-12-18T14:00:34;33.40;;;12.50;;
56720;SDS011;53183;47.412;18.884;2022-12-18T14:03:01;29.85;;;12.70;;
56720;SDS011;53183;47.412;18.884;2022-12-18T14:05:32;39.22;;;14.20;;
56720;SDS011;53183;47.412;18.884;2022-12-18T14:08:05;28.23;;;12.25;;
56720;SDS011;53183;47.412;18.884;2022-12-18T14:10:39;45.30;;;15.27;;
56720;SDS011;53183;47.412;18.884;2022-12-18T14:13:29;44.53;;;17.50;;
56720;SDS011;53183;47.412;18.884;2022-12-18T14:15:59;48.03;;;19.02;;
56720;SDS011;53183;47.412;18.884;2022-12-18T14:18:36;38.95;;;14.73;;
56720;SDS011;53183;47.412;18.884;2022-12-18T14:21:05;38.95;;;15.80;;
56720;SDS011;53183;47.412;18.884;2022-12-18T14:23:44;41.72;;;14.82;;
56720;SDS011;53183;47.412;18.884;2022-12-18T14:26:22;37.72;;;15.65;;
56720;SDS011;53183;47.412;18.884;2022-12-18T14:29:01;48.97;;;16.98;;
56720;SDS011;53183;47.412;18.884;2022-12-18T14:32:03;42.38;;;16.05;;
56720;SDS011;53183;47.412;18.884;2022-12-18T14:34:38;40.50;;;15.65;;
56720;SDS011;53183;47.412;18.884;2022-12-18T14:37:05;37.50;;;16.62;;
56720;SDS011;53183;47.412;18.884;2022-12-18T14:39:36;54.78;;;20.45;;
56720;SDS011;53183;47.412;18.884;2022-12-18T14:42:03;49.40;;;21.08;;
56720;SDS011;53183;47.412;18.884;2022-12-18T14:44:30;61.72;;;24.08;;
56720;SDS011;53183;47.412;18.884;2022-12-18T14:47:16;63.53;;;24.45;;
56720;SDS011;53183;47.412;18.884;2022-12-18T14:49:44;59.00;;;21.67;;
56720;SDS011;53183;47.412;18.884;2022-12-18T14:52:18;57.58;;;20.73;;
56720;SDS011;53183;47.412;18.884;2022-12-18T14:54:54;49.38;;;21.40;;
56720;SDS011;53183;47.412;18.884;2022-12-18T14:57:24;54.00;;;20.33;;
56720;SDS011;53183;47.412;18.884;2022-12-18T15:00:04;45.83;;;18.52;;
56720;SDS011;53183;47.412;18.884;2022-12-18T15:02:34;58.45;;;20.45;;
56720;SDS011;53183;47.412;18.884;2022-12-18T15:05:05;49.83;;;21.45;;
56720;SDS011;53183;47.412;18.884;2022-12-18T15:07:47;57.22;;;22.15;;
56720;SDS011;53183;47.412;18.884;2022-12-18T15:12:49;46.17;;;22.17;;
56720;SDS011;53183;47.412;18.884;2022-12-18T15:18:04;52.35;;;22.95;;
56720;SDS011;53183;47.412;18.884;2022-12-18T15:20:44;67.45;;;23.58;;
56720;SDS011;53183;47.412;18.884;2022-12-18T15:23:18;68.97;;;25.02;;
56720;SDS011;53183;47.412;18.884;2022-12-18T15:25:46;61.40;;;26.62;;
56720;SDS011;53183;47.412;18.884;2022-12-18T15:28:57;53.10;;;22.83;;
56720;SDS011;53183;47.412;18.884;2022-12-18T15:36:21;90.25;;;35.38;;
56720;SDS011;53183;47.412;18.884;2022-12-18T15:38:55;94.80;;;35.50;;
56720;SDS011;53183;47.412;18.884;2022-12-18T15:41:32;90.70;;;36.03;;
56720;SDS011;53183;47.412;18.884;2022-12-18T15:44:02;87.15;;;32.67;;
56720;SDS011;53183;47.412;18.884;2022-12-18T15:46:46;90.72;;;33.83;;
56720;SDS011;53183;47.412;18.884;2022-12-18T15:49:13;98.30;;;35.20;;
56720;SDS011;53183;47.412;18.884;2022-12-18T15:51:40;90.70;;;35.78;;
56720;SDS011;53183;47.412;18.884;2022-12-18T15:54:09;86.32;;;35.30;;
56720;SDS011;53183;47.412;18.884;2022-12-18T15:56:40;92.07;;;35.85;;
56720;SDS011;53183;47.412;18.884;2022-12-18T15:59:26;96.95;;;35.53;;
56720;SDS011;53183;47.412;18.884;2022-12-18T16:01:53;90.32;;;36.83;;
56720;SDS011;53183;47.412;18.884;2022-12-18T16:04:21;91.95;;;37.20;;
56720;SDS011;53183;47.412;18.884;2022-12-18T16:06:50;85.18;;;33.80;;
56720;SDS011;53183;47.412;18.884;2022-12-18T16:09:38;83.87;;;37.33;;
56720;SDS011;53183;47.412;18.884;2022-12-18T16:12:06;96.37;;;34.13;;
56720;SDS011;53183;47.412;18.884;2022-12-18T16:14:41;77.28;;;32.13;;
56720;SDS011;53183;47.412;18.884;2022-12-18T16:17:09;81.53;;;31.83;;
56720;SDS011;53183;47.412;18.884;2022-12-18T16:19:44;86.18;;;33.20;;
56720;SDS011;53183;47.412;18.884;2022-12-18T16:22:18;81.05;;;32.00;;
56720;SDS011;53183;47.412;18.884;2022-12-18T16:24:48;77.90;;;31.77;;
56720;SDS011;53183;47.412;18.884;2022-12-18T16:27:15;81.60;;;33.97;;
56720;SDS011;53183;47.412;18.884;2022-12-18T16:29:43;78.55;;;31.25;;
56720;SDS011;53183;47.412;18.884;2022-12-18T16:32:15;86.63;;;30.98;;
56720;SDS011;53183;47.412;18.884;2022-12-18T16:34:43;80.03;;;32.15;;
56720;SDS011;53183;47.412;18.884;2022-12-18T16:37:12;83.15;;;32.25;;
56720;SDS011;53183;47.412;18.884;2022-12-18T16:39:40;88.30;;;35.25;;
56720;SDS011;53183;47.412;18.884;2022-12-18T16:42:15;84.82;;;33.75;;
56720;SDS011;53183;47.412;18.884;2022-12-18T16:44:47;81.80;;;33.20;;
56720;SDS011;53183;47.412;18.884;2022-12-18T16:47:16;85.10;;;36.30;;